Flight Track Log - Related Links

Times and Time Zones

All times are in EST time to prevent confusion due to time zone crossing. See the N978AC flight status page for this flight to view local times or setup timezone preferences in your user account.

Time Position Orientation Groundspeed Altitude Reporting Facility
EST Latitude Longitude Course Direction KTS MPH feet Rate Location/Type
Mon 12:19:27 PM 27.6514 -80.4931 178° South 95 109 1,900  Level Miami Center
Mon 12:20:27 PM 27.6486 -80.5211 264° West 88 101 2,500 550 Climbing Miami Center
Mon 12:21:27 PM 27.6458 -80.5467 263° West 88 101 3,000 350 Climbing Miami Center
Mon 12:22:27 PM 27.6431 -80.5769 264° West 88 101 3,200 350 Climbing Miami Center
Mon 12:23:00 PM 27.4692 -80.4110 178° South  Level FlightAware Approximate
Mon 12:23:27 PM 27.6383 -80.6028 258° West 93 107 3,700  Level Miami Center
Mon 12:24:00 PM 27.4382 -80.4099 178° South  Level FlightAware Approximate
Mon 12:24:27 PM 27.6253 -80.6211 231° Southwest 88 101 4,000  Level Miami Center
Mon 12:25:27 PM 27.5917 -80.6222 182° South 96 110 4,100  Climbing Miami Center
Mon 12:26:27 PM 27.5625 -80.6258 186° South 109 125 4,000  Descending Miami Center
Mon 12:27:27 PM 27.5311 -80.6250 179° South 109 125 4,100 50 Climbing Miami Center
Mon 12:28:27 PM 27.5061 -80.6264 183° South 109 125 4,100 -50 Level Miami Center
Mon 12:29:27 PM 27.4747 -80.6278 182° South 109 125 4,000  Descending Miami Center
Mon 12:30:27 PM 27.4433 -80.6361 193° South 109 125 4,100 50 Climbing Miami Center
Mon 12:31:27 PM 27.4139 -80.6375 182° South 109 125 4,100  Level Miami Center
Mon 12:32:27 PM 27.3867 -80.6436 191° South 104 120 4,100  Level Miami Center
Mon 12:33:27 PM 27.3594 -80.6475 187° South 104 120 4,100 -50 Level Miami Center
Mon 12:34:27 PM 27.3322 -80.6511 187° South 104 120 4,000  Descending Miami Center
Mon 12:35:27 PM 27.3008 -80.6547 186° South 104 120 4,100 50 Climbing Miami Center
Mon 12:36:27 PM 27.2694 -80.6561 182° South 104 120 4,100  Level Miami Center
Mon 12:37:27 PM 27.2400 -80.6575 182° South 104 120 4,100  Level Miami Center
Mon 12:38:27 PM 27.2108 -80.6564 178° South 104 120 4,100  Level Miami Center
Mon 12:39:27 PM 27.1794 -80.6578 182° South 104 120 4,100  Level Miami Center
Mon 12:40:27 PM 27.1461 -80.6567 178° South 110 127 4,100  Level Miami Center
Mon 12:41:27 PM 27.1169 -80.6606 187° South 110 127 4,100  Level Miami Center
Mon 12:42:27 PM 27.0856 -80.6617 182° South 110 127 4,100  Level Miami Center
Mon 12:43:27 PM 27.0603 -80.6681 193° South 110 127 4,100 -50 Level Miami Center
Mon 12:44:27 PM 27.0269 -80.6669 178° South 105 121 4,000 -100 Descending Miami Center
Mon 12:46:00 PM 26.9860 -80.6695 183° South  Level FlightAware Approximate
Mon 12:53:00 PM 26.8014 -80.6812 183° South  Level FlightAware Approximate
Mon 12:54:00 PM 26.7750 -80.6828 183° South  Level FlightAware Approximate
Mon 12:55:00 PM 26.7640 -80.6632 99° East  Level FlightAware Approximate
Mon 12:56:00 PM 26.7600 -80.6340 99° East  Level FlightAware Approximate
Mon 12:57:00 PM 26.7560 -80.6047 99° East  Level FlightAware Approximate
Mon 12:58:00 PM 26.7521 -80.5754 99° East  Level FlightAware Approximate
Mon 12:59:00 PM 26.7481 -80.5462 99° East  Level FlightAware Approximate
Mon 01:00:00 PM 26.7441 -80.5169 99° East  Level FlightAware Approximate
Mon 01:01:00 PM 26.7401 -80.4877 99° East  Level FlightAware Approximate
Mon 01:02:00 PM 26.7361 -80.4584 99° East  Level FlightAware Approximate
Mon 01:03:00 PM 26.7321 -80.4292 99° East  Level FlightAware Approximate

Login

Don't have an account? Register now (free) for customized features, flight alerts, and more!